Terminal Aerodrome Forecast
Issued by NWS

Home | Current Version | Previous Version | Text Only | Print | Product List | Glossary On
Versions: 1 2 3 4 5 6 7 8 9 10 11 12 13 14 15 16 17 18 19 20 21
000
FTUS46 KLOX 191324 AAA
TAFLGB
TAF AMD
KLGB 191324Z 1913/2012 VRB03KT 5SM BR OVC015
     FM191700 22007KT P6SM BKN025 BKN050
     FM192200 28012KT P6SM BKN050
     FM200600 32012KT P6SM SCT050=

USA.gov is the U.S. government's official web portal to all federal, state and local government web resources and services.